createdAt,value
2018-03-14T00:00:10.820Z,99.49
2018-03-14T00:01:10.762Z,99.96
2018-03-14T00:02:10.743Z,99.99
2018-03-14T00:03:10.755Z,99.99
2018-03-14T00:04:10.680Z,99.54
2018-03-14T00:05:10.655Z,99.26
2018-03-14T00:06:10.633Z,99.63
2018-03-14T00:07:10.606Z,99.58
2018-03-14T00:08:10.602Z,99.91
2018-03-14T00:09:10.555Z,98.97
2018-03-14T00:10:10.520Z,98.25
2018-03-14T00:11:10.502Z,98.44
2018-03-14T00:12:10.502Z,98.35
2018-03-14T00:13:10.416Z,98.54
2018-03-14T00:14:10.389Z,98.44
2018-03-14T00:15:10.359Z,98.25
2018-03-14T00:16:10.330Z,98.25
2018-03-14T00:17:10.329Z,99.01
2018-03-14T00:18:10.333Z,99.58
2018-03-14T00:19:10.235Z,99.26
2018-03-14T00:20:10.239Z,98.63
2018-03-14T00:21:10.221Z,98.21
2018-03-14T00:22:10.200Z,98.97
2018-03-14T00:23:10.134Z,98.44
2018-03-14T00:24:10.092Z,99.20
2018-03-14T00:25:10.083Z,99.87
2018-03-14T00:26:10.064Z,99.63
2018-03-14T00:27:10.010Z,99.20
2018-03-14T00:28:10.015Z,99.11
2018-03-14T00:29:09.972Z,99.30
2018-03-14T00:30:09.930Z,99.68
2018-03-14T00:31:09.899Z,99.77
2018-03-14T00:32:09.888Z,99.49
2018-03-14T00:33:09.850Z,99.30
2018-03-14T00:34:09.824Z,99.87
2018-03-14T00:35:09.759Z,99.99
2018-03-14T00:36:09.747Z,99.99
2018-03-14T00:37:09.749Z,99.99
2018-03-14T00:38:09.671Z,99.99
2018-03-14T00:39:09.643Z,98.97
2018-03-14T00:40:09.630Z,98.44
2018-03-14T00:41:09.602Z,98.73
2018-03-14T00:42:09.572Z,99.20
2018-03-14T00:43:09.567Z,99.39
2018-03-14T00:44:09.532Z,99.68
2018-03-14T00:45:09.488Z,99.99
2018-03-14T00:46:09.501Z,99.39
2018-03-14T00:47:09.407Z,99.87
2018-03-14T00:48:09.420Z,99.39
2018-03-14T00:49:09.408Z,99.11
2018-03-14T00:50:09.335Z,99.58
2018-03-14T00:51:09.300Z,99.39
2018-03-14T00:52:09.285Z,99.49
2018-03-14T00:53:09.242Z,99.58
2018-03-14T00:54:09.212Z,99.77
2018-03-14T00:55:09.173Z,99.49
2018-03-14T00:56:09.160Z,99.68
2018-03-14T00:57:09.158Z,99.68
2018-03-14T00:58:09.121Z,99.99
2018-03-14T00:59:09.067Z,99.77
2018-03-14T01:00:09.063Z,99.99
2018-03-14T01:01:09.053Z,99.99
2018-03-14T01:02:09.014Z,99.99
2018-03-14T01:03:08.948Z,99.99
2018-03-14T01:04:08.900Z,99.99
2018-03-14T01:05:08.892Z,99.99
2018-03-14T01:06:08.882Z,99.99
2018-03-14T01:07:08.894Z,99.99
2018-03-14T01:08:08.817Z,99.96
2018-03-14T01:09:08.752Z,99.99
2018-03-14T01:10:08.747Z,99.99
2018-03-14T01:11:08.739Z,99.99
2018-03-14T01:12:08.713Z,99.96
2018-03-14T01:13:08.768Z,99.30
2018-03-14T01:14:08.632Z,99.68
2018-03-14T01:15:08.584Z,99.99
2018-03-14T01:16:08.596Z,99.99
2018-03-14T01:17:08.541Z,99.99
2018-03-14T01:18:08.499Z,99.99
2018-03-14T01:19:08.489Z,99.99
2018-03-14T01:20:08.479Z,99.99
2018-03-14T01:21:08.426Z,99.99
2018-03-14T01:22:08.441Z,99.99
2018-03-14T01:23:08.352Z,99.77
2018-03-14T01:24:08.329Z,99.99
2018-03-14T01:25:08.336Z,99.99
2018-03-14T01:26:08.307Z,99.73
2018-03-14T01:27:08.261Z,99.68
2018-03-14T01:28:08.217Z,99.39
2018-03-14T01:29:08.203Z,99.99
2018-03-14T01:30:08.161Z,99.99
2018-03-14T01:31:08.360Z,99.99
2018-03-14T01:32:08.107Z,99.99
2018-03-14T01:33:08.071Z,99.99
2018-03-14T01:34:08.049Z,99.99
2018-03-14T01:35:07.994Z,99.49
2018-03-14T01:36:08.092Z,99.82
2018-03-14T01:37:07.969Z,99.39
2018-03-14T01:38:07.965Z,99.68
2018-03-14T01:39:07.887Z,99.99
2018-03-14T01:40:07.904Z,99.63
2018-03-14T01:41:07.835Z,99.63
2018-03-14T01:42:07.796Z,99.63
2018-03-14T01:43:07.769Z,99.82
2018-03-14T01:44:07.746Z,99.73
2018-03-14T01:45:07.725Z,99.73
2018-03-14T01:46:07.681Z,99.44
2018-03-14T01:47:07.687Z,99.01
2018-03-14T01:48:07.666Z,99.39
2018-03-14T01:49:07.610Z,99.30
2018-03-14T01:50:07.580Z,99.39
2018-03-14T01:51:07.588Z,99.77
2018-03-14T01:52:07.515Z,99.39
2018-03-14T01:53:07.495Z,99.35
2018-03-14T01:54:07.464Z,99.39
2018-03-14T01:55:07.415Z,99.99
2018-03-14T01:56:07.414Z,99.99
2018-03-14T01:57:07.347Z,99.91
2018-03-14T01:58:07.369Z,99.44
2018-03-14T01:59:07.330Z,99.87
2018-03-14T02:00:07.273Z,99.26
2018-03-14T02:01:07.244Z,99.68
2018-03-14T02:02:07.220Z,99.63
2018-03-14T02:03:07.206Z,99.87
2018-03-14T02:04:07.209Z,99.58
2018-03-14T02:05:07.149Z,99.30
2018-03-14T02:06:07.117Z,99.63
2018-03-14T02:07:07.085Z,99.99
2018-03-14T02:08:07.037Z,99.68
2018-03-14T02:09:06.997Z,99.87
2018-03-14T02:10:07.000Z,99.20
2018-03-14T02:11:06.988Z,99.30
2018-03-14T02:12:06.913Z,99.01
2018-03-14T02:13:06.907Z,99.01
2018-03-14T02:14:06.872Z,99.30
2018-03-14T02:15:06.855Z,99.49
2018-03-14T02:16:06.800Z,99.30
2018-03-14T02:17:06.812Z,99.11
2018-03-14T02:18:06.771Z,99.20
2018-03-14T02:19:06.716Z,99.01
2018-03-14T02:20:06.710Z,99.39
2018-03-14T02:21:06.673Z,99.01
2018-03-14T02:22:06.618Z,98.44
2018-03-14T02:23:06.652Z,98.44
2018-03-14T02:24:06.574Z,97.40
2018-03-14T02:25:06.569Z,97.31
2018-03-14T02:26:06.568Z,97.59
2018-03-14T02:27:06.516Z,97.31
2018-03-14T02:28:06.498Z,97.40
2018-03-14T02:29:06.426Z,97.12
2018-03-14T02:30:06.412Z,97.02
2018-03-14T02:31:06.374Z,96.55
2018-03-14T02:32:06.389Z,97.21
2018-03-14T02:33:06.350Z,97.12
2018-03-14T02:34:06.321Z,96.73
2018-03-14T02:35:06.294Z,96.64
2018-03-14T02:36:06.218Z,96.64
2018-03-14T02:37:06.237Z,95.98
2018-03-14T02:38:06.156Z,96.08
2018-03-14T02:39:06.194Z,96.36
2018-03-14T02:40:06.113Z,96.08
2018-03-14T02:41:06.108Z,96.08
2018-03-14T02:42:06.110Z,95.98
2018-03-14T02:43:06.019Z,96.55
2018-03-14T02:44:05.983Z,97.02
2018-03-14T02:45:06.033Z,97.50
2018-03-14T02:46:05.949Z,97.02
2018-03-14T02:47:05.936Z,97.02
2018-03-14T02:48:05.891Z,97.12
2018-03-14T02:49:05.872Z,97.31
2018-03-14T02:50:05.811Z,97.31
2018-03-14T02:51:05.807Z,97.78
2018-03-14T02:52:05.754Z,97.02
2018-03-14T02:53:05.719Z,97.40
2018-03-14T02:54:05.741Z,97.31
2018-03-14T02:55:05.712Z,97.78
2018-03-14T02:56:05.690Z,97.50
2018-03-14T02:57:05.609Z,97.50
2018-03-14T02:58:05.570Z,97.50
2018-03-14T02:59:05.541Z,98.07
2018-03-14T03:00:05.528Z,98.16
2018-03-14T03:01:05.518Z,98.16
2018-03-14T03:02:05.506Z,97.88
2018-03-14T03:03:05.446Z,98.16
2018-03-14T03:04:05.433Z,97.69
2018-03-14T03:05:05.377Z,98.44
2018-03-14T03:06:05.350Z,98.25
2018-03-14T03:07:05.346Z,98.54
2018-03-14T03:08:05.333Z,98.44
2018-03-14T03:09:05.257Z,98.54
2018-03-14T03:10:05.256Z,98.54
2018-03-14T03:11:05.213Z,98.54
2018-03-14T03:12:05.849Z,97.88
2018-03-14T03:13:05.150Z,98.16
2018-03-14T03:14:05.119Z,98.07
2018-03-14T03:15:05.081Z,98.54
2018-03-14T03:16:05.067Z,98.44
2018-03-14T03:17:05.027Z,98.54
2018-03-14T03:18:05.051Z,98.35
2018-03-14T03:19:04.950Z,98.35
2018-03-14T03:20:04.948Z,98.35
2018-03-14T03:21:04.977Z,98.54
2018-03-14T03:22:04.901Z,98.07
2018-03-14T03:23:04.866Z,97.97
2018-03-14T03:24:04.830Z,98.63
2018-03-14T03:25:04.781Z,98.25
2018-03-14T03:26:04.764Z,98.25
2018-03-14T03:27:04.718Z,98.54
2018-03-14T03:28:04.694Z,98.54
2018-03-14T03:29:04.704Z,98.44
2018-03-14T03:30:04.639Z,98.73
2018-03-14T03:31:04.679Z,98.25
2018-03-14T03:32:04.603Z,98.44
2018-03-14T03:33:04.613Z,98.16
2018-03-14T03:34:04.569Z,98.44
2018-03-14T03:35:04.561Z,98.54
2018-03-14T03:36:04.479Z,98.25
2018-03-14T03:37:04.441Z,98.54
2018-03-14T03:38:04.427Z,98.16
2018-03-14T03:39:04.379Z,98.16
2018-03-14T03:40:04.351Z,98.35
2018-03-14T03:41:04.352Z,98.25
2018-03-14T03:42:04.275Z,98.63
2018-03-14T03:43:04.280Z,99.30
2018-03-14T03:44:04.234Z,99.20
2018-03-14T03:45:04.201Z,98.82
2018-03-14T03:46:04.179Z,99.11
2018-03-14T03:47:04.188Z,98.82
2018-03-14T03:48:04.118Z,98.82
2018-03-14T03:49:04.120Z,98.92
2018-03-14T03:50:04.045Z,98.73
2018-03-14T03:51:04.860Z,98.63
2018-03-14T03:52:04.025Z,99.30
2018-03-14T03:53:03.971Z,99.11
2018-03-14T03:54:03.936Z,99.39
2018-03-14T03:55:03.922Z,99.30
2018-03-14T03:56:03.884Z,99.58
2018-03-14T03:57:03.858Z,99.68
2018-03-14T03:58:03.881Z,99.99
2018-03-14T03:59:03.832Z,99.68
2018-03-14T04:00:03.766Z,99.99
2018-03-14T04:01:03.749Z,99.99
2018-03-14T04:02:03.726Z,99.96
2018-03-14T04:03:03.672Z,99.68
2018-03-14T04:04:03.644Z,99.49
2018-03-14T04:05:03.621Z,99.20
2018-03-14T04:06:03.593Z,99.96
2018-03-14T04:07:03.549Z,99.20
2018-03-14T04:08:03.529Z,99.58
2018-03-14T04:09:03.508Z,99.49
2018-03-14T04:10:03.466Z,99.49
2018-03-14T04:11:03.462Z,99.99
2018-03-14T04:12:03.433Z,99.99
2018-03-14T04:13:03.360Z,99.99
2018-03-14T04:14:03.361Z,99.99
2018-03-14T04:15:03.332Z,99.77
2018-03-14T04:16:03.288Z,99.30
2018-03-14T04:17:03.278Z,99.11
2018-03-14T04:18:03.224Z,99.11
2018-03-14T04:19:03.210Z,99.01
2018-03-14T04:20:03.184Z,99.11
2018-03-14T04:21:03.140Z,99.01
2018-03-14T04:22:03.116Z,98.82
2018-03-14T04:23:03.126Z,98.73
2018-03-14T04:24:03.082Z,99.30
2018-03-14T04:25:03.067Z,99.01
2018-03-14T04:26:02.983Z,98.92
2018-03-14T04:27:02.950Z,98.44
2018-03-14T04:28:02.966Z,98.25
2018-03-14T04:29:02.887Z,98.07
2018-03-14T04:30:02.913Z,98.07
2018-03-14T04:31:02.823Z,98.07
2018-03-14T04:32:02.805Z,98.44
2018-03-14T04:33:02.790Z,98.25
2018-03-14T04:34:02.822Z,97.88
2018-03-14T04:35:02.804Z,98.07
2018-03-14T04:36:02.713Z,98.35
2018-03-14T04:37:02.690Z,98.07
2018-03-14T04:38:02.693Z,98.25
2018-03-14T04:39:02.612Z,98.07
2018-03-14T04:40:02.606Z,98.25
2018-03-14T04:41:02.577Z,97.97
2018-03-14T04:42:02.562Z,98.35
2018-03-14T04:43:02.559Z,98.44
2018-03-14T04:44:02.535Z,98.25
2018-03-14T04:45:02.452Z,98.44
2018-03-14T04:46:02.396Z,98.07
2018-03-14T04:47:02.386Z,98.63
2018-03-14T04:48:02.363Z,98.25
2018-03-14T04:49:02.337Z,98.44
2018-03-14T04:50:02.277Z,98.63
2018-03-14T04:51:02.308Z,98.54
2018-03-14T04:52:02.257Z,98.44
2018-03-14T04:53:02.240Z,98.92
2018-03-14T04:54:02.178Z,98.25
2018-03-14T04:55:02.164Z,98.82
2018-03-14T04:56:02.132Z,98.54
2018-03-14T04:57:02.084Z,98.63
2018-03-14T04:58:02.052Z,98.92
2018-03-14T04:59:02.034Z,99.30
2018-03-14T05:00:02.006Z,99.30
2018-03-14T05:01:01.946Z,99.58
2018-03-14T05:02:01.918Z,99.39
2018-03-14T05:03:01.896Z,99.77
2018-03-14T05:04:01.903Z,99.20
2018-03-14T05:05:01.858Z,98.63
2018-03-14T05:06:01.809Z,98.25
2018-03-14T05:07:01.789Z,97.88
2018-03-14T05:08:01.736Z,98.82
2018-03-14T05:09:03.218Z,98.35
2018-03-14T05:10:01.762Z,98.25
2018-03-14T05:11:01.682Z,98.25
2018-03-14T05:12:01.650Z,98.92
2018-03-14T05:13:01.612Z,98.82
2018-03-14T05:14:01.573Z,98.44
2018-03-14T05:15:01.569Z,98.07
2018-03-14T05:16:01.588Z,98.16
2018-03-14T05:17:01.549Z,98.44
2018-03-14T05:18:01.492Z,98.07
2018-03-14T05:19:01.410Z,98.07
2018-03-14T05:20:01.430Z,97.97
2018-03-14T05:21:01.408Z,97.97
2018-03-14T05:22:01.363Z,98.16
2018-03-14T05:23:01.376Z,98.44
2018-03-14T05:24:01.291Z,98.25
2018-03-14T05:25:01.314Z,97.97
2018-03-14T05:26:01.205Z,98.16
2018-03-14T05:27:01.196Z,98.07
2018-03-14T05:28:01.175Z,97.78
2018-03-14T05:29:01.157Z,98.07
2018-03-14T05:30:01.267Z,98.44
2018-03-14T05:31:01.069Z,98.16
2018-03-14T05:32:01.088Z,98.07
2018-03-14T05:33:02.646Z,97.50
2018-03-14T05:34:02.728Z,97.69
2018-03-14T05:35:02.660Z,98.35
2018-03-14T05:36:01.096Z,98.16
2018-03-14T05:37:00.943Z,98.07
2018-03-14T05:38:00.859Z,97.59
2018-03-14T05:39:00.860Z,97.50
2018-03-14T05:40:00.842Z,98.07
2018-03-14T05:41:00.758Z,98.07
2018-03-14T05:42:00.754Z,98.25
2018-03-14T05:43:00.696Z,98.35
2018-03-14T05:44:00.798Z,98.16
2018-03-14T05:45:00.679Z,98.73
2018-03-14T05:46:00.714Z,98.63
2018-03-14T05:47:00.694Z,98.35
2018-03-14T05:48:00.750Z,98.44
2018-03-14T05:49:00.725Z,98.92
2018-03-14T05:50:00.641Z,98.73
2018-03-14T05:51:00.533Z,98.77
2018-03-14T05:52:00.531Z,99.30
2018-03-14T05:53:00.529Z,99.30
2018-03-14T05:54:00.399Z,98.73
2018-03-14T05:55:00.369Z,99.20
2018-03-14T05:56:00.385Z,99.49
2018-03-14T05:57:00.287Z,99.39
2018-03-14T05:58:00.318Z,99.20
2018-03-14T05:59:00.234Z,98.54
2018-03-14T06:00:00.223Z,98.63
2018-03-14T06:01:00.174Z,98.07
2018-03-14T06:02:00.192Z,97.78
2018-03-14T06:03:00.907Z,98.44
2018-03-14T06:04:00.113Z,98.07
2018-03-14T06:05:00.101Z,98.25
2018-03-14T06:06:00.065Z,98.16
2018-03-14T06:07:00.041Z,98.44
2018-03-14T06:07:59.977Z,98.73
2018-03-14T06:08:59.935Z,99.20
2018-03-14T06:09:59.904Z,99.11
2018-03-14T06:10:59.900Z,99.01
2018-03-14T06:11:59.867Z,99.20
2018-03-14T06:12:59.872Z,99.20
2018-03-14T06:13:59.833Z,98.54
2018-03-14T06:14:59.789Z,98.44
2018-03-14T06:15:59.738Z,98.54
2018-03-14T06:16:59.745Z,98.44
2018-03-14T06:17:59.774Z,98.16
2018-03-14T06:18:59.656Z,98.73
2018-03-14T06:19:59.660Z,98.35
2018-03-14T06:20:59.638Z,98.54
2018-03-14T06:21:59.568Z,98.54
2018-03-14T06:22:59.573Z,98.16
2018-03-14T06:23:59.530Z,98.92
2018-03-14T06:24:59.491Z,98.25
2018-03-14T06:25:59.473Z,98.16
2018-03-14T06:26:59.446Z,98.25
2018-03-14T06:27:59.395Z,98.63
2018-03-14T06:28:59.415Z,98.44
2018-03-14T06:29:59.333Z,98.07
2018-03-14T06:30:59.337Z,98.82
2018-03-14T06:31:59.281Z,98.25
2018-03-14T06:32:59.234Z,98.25
2018-03-14T06:33:59.227Z,97.97
2018-03-14T06:34:59.192Z,98.25
2018-03-14T06:35:59.158Z,98.44
2018-03-14T06:36:59.154Z,98.25
2018-03-14T06:37:59.111Z,97.88
2018-03-14T06:38:59.094Z,98.16
2018-03-14T06:39:59.085Z,98.73
2018-03-14T06:40:59.035Z,98.16
2018-03-14T06:41:59.012Z,97.97
2018-03-14T06:42:58.959Z,97.31
2018-03-14T06:43:58.972Z,97.40
2018-03-14T06:44:58.910Z,97.59
2018-03-14T06:45:58.898Z,97.50
2018-03-14T06:46:58.894Z,97.88
2018-03-14T06:47:58.906Z,98.07
2018-03-14T06:48:58.820Z,98.07
2018-03-14T06:49:58.851Z,98.07
2018-03-14T06:50:58.784Z,98.16
2018-03-14T06:51:58.726Z,98.44
2018-03-14T06:52:58.674Z,97.59
2018-03-14T06:53:58.644Z,97.69
2018-03-14T06:54:58.593Z,97.59
2018-03-14T06:55:58.569Z,97.12
2018-03-14T06:56:58.635Z,97.59
2018-03-14T06:57:58.521Z,97.31
2018-03-14T06:58:58.618Z,97.59
2018-03-14T06:59:58.520Z,97.02
2018-03-14T07:00:58.482Z,96.73
2018-03-14T07:01:58.408Z,96.83
2018-03-14T07:02:58.409Z,96.17
2018-03-14T07:03:58.342Z,96.73
2018-03-14T07:04:58.336Z,96.83
2018-03-14T07:05:58.297Z,96.83
2018-03-14T07:06:58.271Z,97.02
2018-03-14T07:07:58.314Z,97.12
2018-03-14T07:08:58.244Z,97.59
2018-03-14T07:09:58.184Z,97.50
2018-03-14T07:10:58.153Z,96.83
2018-03-14T07:11:58.162Z,96.73
2018-03-14T07:12:58.082Z,96.45
2018-03-14T07:13:58.102Z,96.83
2018-03-14T07:14:58.027Z,96.73
2018-03-14T07:15:58.026Z,96.73
2018-03-14T07:16:57.988Z,96.64
2018-03-14T07:17:57.975Z,96.73
2018-03-14T07:18:57.916Z,96.83
2018-03-14T07:19:57.885Z,95.88
2018-03-14T07:20:57.881Z,95.69
2018-03-14T07:21:57.861Z,95.79
2018-03-14T07:22:57.816Z,95.93
2018-03-14T07:23:57.760Z,96.08
2018-03-14T07:24:57.751Z,96.08
2018-03-14T07:25:57.739Z,94.93
2018-03-14T07:26:57.698Z,96.08
2018-03-14T07:27:57.647Z,95.98
2018-03-14T07:28:57.668Z,96.03
2018-03-14T07:29:57.580Z,95.93
2018-03-14T07:30:57.574Z,95.65
2018-03-14T07:31:57.577Z,94.79
2018-03-14T07:32:57.527Z,94.23
2018-03-14T07:33:57.538Z,94.60
2018-03-14T07:34:57.502Z,94.79
2018-03-14T07:35:57.448Z,95.36
2018-03-14T07:36:57.467Z,94.79
2018-03-14T07:37:57.632Z,95.07
2018-03-14T07:38:57.326Z,94.23
2018-03-14T07:39:57.293Z,93.84
2018-03-14T07:40:57.275Z,93.75
2018-03-14T07:41:57.236Z,93.56
2018-03-14T07:42:57.283Z,93.75
2018-03-14T07:43:57.244Z,94.18
2018-03-14T07:44:57.245Z,93.56
2018-03-14T07:45:57.116Z,92.61
2018-03-14T07:46:57.102Z,92.33
2018-03-14T07:47:57.067Z,92.80
2018-03-14T07:48:57.044Z,93.56
2018-03-14T07:49:57.010Z,93.56
2018-03-14T07:50:56.971Z,93.56
2018-03-14T07:51:56.966Z,94.70
2018-03-14T07:52:56.920Z,94.60
2018-03-14T07:53:56.878Z,95.55
2018-03-14T07:54:56.877Z,94.51
2018-03-14T07:55:56.851Z,94.42
2018-03-14T07:56:56.797Z,94.03
2018-03-14T07:57:56.804Z,94.23
2018-03-14T07:58:56.764Z,93.84
2018-03-14T07:59:56.716Z,93.65
2018-03-14T08:00:56.686Z,93.56
2018-03-14T08:01:56.738Z,94.23
2018-03-14T08:02:56.690Z,93.27
2018-03-14T08:03:56.676Z,93.65
2018-03-14T08:04:56.582Z,93.56
2018-03-14T08:05:56.553Z,92.42
2018-03-14T08:06:56.516Z,92.33
2018-03-14T08:07:56.494Z,92.56
2018-03-14T08:08:56.465Z,92.56
2018-03-14T08:09:56.425Z,92.18
2018-03-14T08:10:56.403Z,91.42
2018-03-14T08:11:56.379Z,90.47
2018-03-14T08:12:56.356Z,91.09
2018-03-14T08:13:56.391Z,91.38
2018-03-14T08:14:56.306Z,92.80
2018-03-14T08:15:56.278Z,92.33
2018-03-14T08:16:56.234Z,92.14
2018-03-14T08:17:56.215Z,91.00
2018-03-14T08:18:56.174Z,90.81
2018-03-14T08:19:56.150Z,91.38
2018-03-14T08:20:56.122Z,90.71
2018-03-14T08:21:56.111Z,91.00
2018-03-14T08:22:56.068Z,91.28
2018-03-14T08:23:56.045Z,91.85
2018-03-14T08:24:56.041Z,92.23
2018-03-14T08:25:56.018Z,91.47
2018-03-14T08:26:55.972Z,91.09
2018-03-14T08:27:55.974Z,91.19
2018-03-14T08:28:55.885Z,91.28
2018-03-14T08:29:55.882Z,92.33
2018-03-14T08:30:55.829Z,92.42
2018-03-14T08:31:55.808Z,92.14
2018-03-14T08:32:55.897Z,92.28
2018-03-14T08:33:55.836Z,91.42
2018-03-14T08:34:55.770Z,91.99
2018-03-14T08:35:55.812Z,91.24
2018-03-14T08:36:55.679Z,89.90
2018-03-14T08:37:55.641Z,89.05
2018-03-14T08:38:55.623Z,86.68
2018-03-14T08:39:55.589Z,86.20
2018-03-14T08:40:55.559Z,87.01
2018-03-14T08:41:55.530Z,87.57
2018-03-14T08:42:55.508Z,86.15
2018-03-14T08:43:55.466Z,85.49
2018-03-14T08:44:55.442Z,84.63
2018-03-14T08:45:55.409Z,85.11
2018-03-14T08:46:55.449Z,85.49
2018-03-14T08:47:55.395Z,86.34
2018-03-14T08:48:55.326Z,85.77
2018-03-14T08:49:55.305Z,85.68
2018-03-14T08:50:55.337Z,86.34
2018-03-14T08:51:55.239Z,86.34
2018-03-14T08:52:55.217Z,84.16
2018-03-14T08:53:55.188Z,82.92
2018-03-14T08:54:55.191Z,82.50
2018-03-14T08:55:55.146Z,82.97
2018-03-14T08:56:55.108Z,83.59
2018-03-14T08:57:55.101Z,83.68
2018-03-14T08:58:55.045Z,83.20
2018-03-14T08:59:55.027Z,82.82
2018-03-14T09:00:54.997Z,82.64
2018-03-14T09:01:54.968Z,82.26
2018-03-14T09:02:54.951Z,83.01
2018-03-14T09:03:54.904Z,80.74
2018-03-14T09:04:54.877Z,79.79
2018-03-14T09:05:54.857Z,80.35
2018-03-14T09:06:54.877Z,80.26
2018-03-14T09:07:54.798Z,79.88
2018-03-14T09:08:54.794Z,80.87
2018-03-14T09:09:54.747Z,81.63
2018-03-14T09:10:54.716Z,80.40
2018-03-14T09:11:54.700Z,80.02
2018-03-14T09:12:54.667Z,79.79
2018-03-14T09:13:54.643Z,79.92
2018-03-14T09:14:54.624Z,78.69
2018-03-14T09:15:54.578Z,79.44
2018-03-14T09:16:54.588Z,79.35
2018-03-14T09:17:54.530Z,80.02
2018-03-14T09:18:54.502Z,79.83
2018-03-14T09:19:54.472Z,78.97
2018-03-14T09:20:54.452Z,78.69
2018-03-14T09:21:54.416Z,77.17
2018-03-14T09:22:54.393Z,76.31
2018-03-14T09:23:54.380Z,75.84
2018-03-14T09:24:54.333Z,76.12
2018-03-14T09:25:54.316Z,76.88
2018-03-14T09:26:54.283Z,77.26
2018-03-14T09:27:54.244Z,74.98
2018-03-14T09:28:54.220Z,75.45
2018-03-14T09:29:54.213Z,76.78
2018-03-14T09:30:54.163Z,77.92
2018-03-14T09:31:54.143Z,78.02
2018-03-14T09:32:54.124Z,78.30
2018-03-14T09:33:54.084Z,78.21
2018-03-14T09:34:54.053Z,78.11
2018-03-14T09:35:54.059Z,78.21
2018-03-14T09:36:54.003Z,79.35
2018-03-14T09:37:53.977Z,79.16
2018-03-14T09:38:53.978Z,77.64
2018-03-14T09:39:53.923Z,76.78
2018-03-14T09:40:53.891Z,77.45
2018-03-14T09:41:53.887Z,77.73
2018-03-14T09:42:53.842Z,77.26
2018-03-14T09:43:53.816Z,76.88
2018-03-14T09:44:53.802Z,77.73
2018-03-14T09:45:53.763Z,78.11
2018-03-14T09:46:53.834Z,78.59
2018-03-14T09:47:53.728Z,77.45
2018-03-14T09:48:53.676Z,78.21
2018-03-14T09:49:53.654Z,77.64
2018-03-14T09:50:53.649Z,76.88
2018-03-14T09:51:53.598Z,77.92
2018-03-14T09:52:53.573Z,76.88
2018-03-14T09:53:53.561Z,77.07
2018-03-14T09:54:53.530Z,76.12
2018-03-14T09:55:53.484Z,74.73
2018-03-14T09:56:53.494Z,74.22
2018-03-14T09:57:53.429Z,74.07
2018-03-14T09:58:53.415Z,74.35
2018-03-14T09:59:53.399Z,74.73
2018-03-14T10:00:53.356Z,74.07
2018-03-14T10:01:53.338Z,74.35
2018-03-14T10:02:53.316Z,72.16
2018-03-14T10:03:53.288Z,71.88
2018-03-14T10:04:53.249Z,71.12
2018-03-14T10:05:53.236Z,71.31
2018-03-14T10:06:53.226Z,71.02
2018-03-14T10:07:53.166Z,70.93
2018-03-14T10:08:53.152Z,71.41
2018-03-14T10:09:53.124Z,72.07
2018-03-14T10:10:53.085Z,71.78
2018-03-14T10:11:53.075Z,72.07
2018-03-14T10:12:53.041Z,72.64
2018-03-14T10:13:53.016Z,71.59
2018-03-14T10:14:52.993Z,71.50
2018-03-14T10:15:52.962Z,72.07
2018-03-14T10:16:52.921Z,72.83
2018-03-14T10:17:52.904Z,72.60
2018-03-14T10:18:52.875Z,72.89
2018-03-14T10:19:52.843Z,72.92
2018-03-14T10:20:52.834Z,73.69
2018-03-14T10:21:52.841Z,73.27
2018-03-14T10:22:52.784Z,72.79
2018-03-14T10:23:52.750Z,73.18
2018-03-14T10:24:52.735Z,72.32
2018-03-14T10:25:52.724Z,72.32
2018-03-14T10:26:52.667Z,72.03
2018-03-14T10:27:52.628Z,72.56
2018-03-14T10:28:52.607Z,73.42
2018-03-14T10:29:52.585Z,73.80
2018-03-14T10:30:52.571Z,74.27
2018-03-14T10:31:52.528Z,75.42
2018-03-14T10:32:52.504Z,75.70
2018-03-14T10:33:52.500Z,76.08
2018-03-14T10:34:52.447Z,74.75
2018-03-14T10:35:52.436Z,74.94
2018-03-14T10:36:52.415Z,75.32
2018-03-14T10:37:52.364Z,75.99
2018-03-14T10:38:52.344Z,75.89
2018-03-14T10:39:52.354Z,75.55
2018-03-14T10:40:52.341Z,75.32
2018-03-14T10:41:52.351Z,75.32
2018-03-14T10:42:52.241Z,75.23
2018-03-14T10:43:52.210Z,75.79
2018-03-14T10:44:52.197Z,76.31
2018-03-14T10:45:52.152Z,76.12
2018-03-14T10:46:52.138Z,75.36
2018-03-14T10:47:52.108Z,75.74
2018-03-14T10:48:52.085Z,75.55
2018-03-14T10:49:52.149Z,75.45
2018-03-14T10:50:52.051Z,75.26
2018-03-14T10:51:51.997Z,74.69
2018-03-14T10:52:52.102Z,75.07
2018-03-14T10:53:52.012Z,75.36
2018-03-14T10:54:52.014Z,75.45
2018-03-14T10:55:51.947Z,75.17
2018-03-14T10:56:51.859Z,76.31
2018-03-14T10:57:51.836Z,77.17
2018-03-14T10:58:51.862Z,76.31
2018-03-14T10:59:51.774Z,76.12
2018-03-14T11:00:51.753Z,75.64
2018-03-14T11:01:51.746Z,75.64
2018-03-14T11:02:51.700Z,75.74
2018-03-14T11:03:51.673Z,76.31
2018-03-14T11:04:51.659Z,76.73
2018-03-14T11:05:51.630Z,76.59
2018-03-14T11:06:51.621Z,76.06
2018-03-14T11:07:51.597Z,76.06
2018-03-14T11:08:51.555Z,76.25
2018-03-14T11:09:51.512Z,76.25
2018-03-14T11:10:51.552Z,75.30
2018-03-14T11:11:51.457Z,75.11
2018-03-14T11:12:51.432Z,74.92
2018-03-14T11:13:51.410Z,75.11
2018-03-14T11:14:51.384Z,74.82
2018-03-14T11:15:51.359Z,74.44
2018-03-14T11:16:51.365Z,73.49
2018-03-14T11:17:51.313Z,72.16
2018-03-14T11:18:51.286Z,73.02
2018-03-14T11:19:51.252Z,71.97
2018-03-14T11:20:51.239Z,71.78
2018-03-14T11:21:51.211Z,70.93
2018-03-14T11:22:51.179Z,71.12
2018-03-14T11:23:51.181Z,71.31
2018-03-14T11:24:51.128Z,71.41
2018-03-14T11:25:51.106Z,71.94
2018-03-14T11:26:51.068Z,73.18
2018-03-14T11:27:51.053Z,73.65
2018-03-14T11:28:51.037Z,73.84
2018-03-14T11:29:51.005Z,73.55
2018-03-14T11:30:50.966Z,73.18
2018-03-14T11:31:50.940Z,72.99
2018-03-14T11:32:50.934Z,72.92
2018-03-14T11:33:50.889Z,73.02
2018-03-14T11:34:50.857Z,73.21
2018-03-14T11:35:50.840Z,73.49
2018-03-14T11:36:50.820Z,71.88
2018-03-14T11:37:50.785Z,71.78
2018-03-14T11:38:50.763Z,71.59
2018-03-14T11:39:50.739Z,70.83
2018-03-14T11:40:50.706Z,71.50
2018-03-14T11:41:50.686Z,71.88
2018-03-14T11:42:51.540Z,72.26
2018-03-14T11:43:50.620Z,71.22
2018-03-14T11:44:50.596Z,71.12
2018-03-14T11:45:50.617Z,71.44
2018-03-14T11:46:50.552Z,71.63
2018-03-14T11:47:50.549Z,70.97
2018-03-14T11:48:50.508Z,70.49
2018-03-14T11:49:50.465Z,70.30
2018-03-14T11:50:50.487Z,70.64
2018-03-14T11:51:50.412Z,71.02
2018-03-14T11:52:50.392Z,72.26
2018-03-14T11:53:50.362Z,73.02
2018-03-14T11:54:50.371Z,73.02
2018-03-14T11:55:50.316Z,73.40
2018-03-14T11:56:50.284Z,72.92
2018-03-14T11:57:50.267Z,73.11
2018-03-14T11:58:50.232Z,72.26
2018-03-14T11:59:50.203Z,72.07
2018-03-14T12:00:50.206Z,72.20
2018-03-14T12:01:50.149Z,72.30
2018-03-14T12:02:50.126Z,71.53
2018-03-14T12:03:50.104Z,70.10
2018-03-14T12:04:50.073Z,70.30
2018-03-14T12:05:50.046Z,70.20
2018-03-14T12:06:50.025Z,69.35
2018-03-14T12:07:49.991Z,69.35
2018-03-14T12:08:49.963Z,70.01
2018-03-14T12:09:49.948Z,70.39
2018-03-14T12:10:49.913Z,69.44
2018-03-14T12:11:49.885Z,70.68
2018-03-14T12:12:49.888Z,71.15
2018-03-14T12:13:49.833Z,70.52
2018-03-14T12:14:49.810Z,71.00
2018-03-14T12:15:49.784Z,71.38
2018-03-14T12:16:49.781Z,70.52
2018-03-14T12:17:49.733Z,70.24
2018-03-14T12:18:49.712Z,69.57
2018-03-14T12:19:49.699Z,68.62
2018-03-14T12:20:49.664Z,68.71
2018-03-14T12:21:49.642Z,68.33
2018-03-14T12:22:49.656Z,69.57
2018-03-14T12:23:49.582Z,70.43
2018-03-14T12:24:49.599Z,71.09
2018-03-14T12:25:49.553Z,71.44
2018-03-14T12:26:49.508Z,72.05
2018-03-14T12:27:49.472Z,71.91
2018-03-14T12:28:49.480Z,71.15
2018-03-14T12:29:49.419Z,72.05
2018-03-14T12:30:49.407Z,71.34
2018-03-14T12:31:49.371Z,71.72
2018-03-14T12:32:49.448Z,71.06
2018-03-14T12:33:49.956Z,70.30
2018-03-14T12:34:49.322Z,70.77
2018-03-14T12:35:49.271Z,70.83
2018-03-14T12:36:49.249Z,70.93
2018-03-14T12:37:49.224Z,71.22
2018-03-14T12:38:49.207Z,71.69
2018-03-14T12:39:49.172Z,71.59
2018-03-14T12:40:49.150Z,71.50
2018-03-14T12:41:49.146Z,72.26
2018-03-14T12:42:49.098Z,73.49
2018-03-14T12:43:49.062Z,73.02
2018-03-14T12:44:49.071Z,72.35
2018-03-14T12:45:49.035Z,71.53
2018-03-14T12:46:48.986Z,71.34
2018-03-14T12:47:48.996Z,71.44
2018-03-14T12:48:48.953Z,71.15
2018-03-14T12:49:48.920Z,71.06
2018-03-14T12:50:48.901Z,71.72
2018-03-14T12:51:48.878Z,71.67